sensor_id;sensor_type;location;lat;lon;timestamp;pressure;altitude;pressure_sealevel;temperature;humidity
4981;BME280;2507;50.392;7.482;2024-03-06T00:01:53;100922.66;;;9.46;70.72
4981;BME280;2507;50.392;7.482;2024-03-06T00:04:18;100923.34;;;9.35;70.82
4981;BME280;2507;50.392;7.482;2024-03-06T00:06:43;100927.56;;;9.23;70.91
4981;BME280;2507;50.392;7.482;2024-03-06T00:09:08;100922.47;;;9.06;71.26
4981;BME280;2507;50.392;7.482;2024-03-06T00:11:34;100929.69;;;8.87;71.85
4981;BME280;2507;50.392;7.482;2024-03-06T00:14:03;100938.09;;;8.78;71.51
4981;BME280;2507;50.392;7.482;2024-03-06T00:16:30;100936.94;;;8.68;71.59
4981;BME280;2507;50.392;7.482;2024-03-06T00:18:55;100940.19;;;8.58;71.75
4981;BME280;2507;50.392;7.482;2024-03-06T00:21:21;100942.75;;;8.28;72.92
4981;BME280;2507;50.392;7.482;2024-03-06T00:23:46;100946.47;;;8.24;73.33
4981;BME280;2507;50.392;7.482;2024-03-06T00:26:11;100947.28;;;8.09;73.49
4981;BME280;2507;50.392;7.482;2024-03-06T00:28:38;100956.72;;;7.96;73.94
4981;BME280;2507;50.392;7.482;2024-03-06T00:31:05;100957.91;;;7.90;74.25
4981;BME280;2507;50.392;7.482;2024-03-06T00:33:30;100968.50;;;7.87;74.09
4981;BME280;2507;50.392;7.482;2024-03-06T00:35:55;100972.22;;;7.83;74.00
4981;BME280;2507;50.392;7.482;2024-03-06T00:38:21;100976.00;;;7.78;73.91
4981;BME280;2507;50.392;7.482;2024-03-06T00:40:46;100968.47;;;7.72;74.59
4981;BME280;2507;50.392;7.482;2024-03-06T00:43:12;100975.66;;;7.68;74.98
4981;BME280;2507;50.392;7.482;2024-03-06T00:45:37;100974.41;;;7.58;75.08
4981;BME280;2507;50.392;7.482;2024-03-06T00:48:02;100991.59;;;7.47;75.45
4981;BME280;2507;50.392;7.482;2024-03-06T00:50:28;100979.88;;;7.38;76.84
4981;BME280;2507;50.392;7.482;2024-03-06T00:52:54;100984.22;;;7.38;76.35
4981;BME280;2507;50.392;7.482;2024-03-06T00:55:19;100994.13;;;7.31;76.28
4981;BME280;2507;50.392;7.482;2024-03-06T00:57:44;100982.78;;;7.32;75.63
4981;BME280;2507;50.392;7.482;2024-03-06T01:00:10;100991.00;;;7.24;75.76
4981;BME280;2507;50.392;7.482;2024-03-06T01:02:39;100993.22;;;7.15;76.11
4981;BME280;2507;50.392;7.482;2024-03-06T01:05:05;100998.81;;;7.24;76.15
4981;BME280;2507;50.392;7.482;2024-03-06T01:07:30;100995.31;;;7.08;75.82
4981;BME280;2507;50.392;7.482;2024-03-06T01:09:56;101007.34;;;6.94;76.00
4981;BME280;2507;50.392;7.482;2024-03-06T01:12:23;101003.28;;;6.88;76.42
4981;BME280;2507;50.392;7.482;2024-03-06T01:14:48;101003.88;;;6.76;77.58
4981;BME280;2507;50.392;7.482;2024-03-06T01:17:13;101012.78;;;6.72;78.03
4981;BME280;2507;50.392;7.482;2024-03-06T01:19:39;101015.22;;;6.75;77.75
4981;BME280;2507;50.392;7.482;2024-03-06T01:22:04;101020.59;;;6.72;76.73
4981;BME280;2507;50.392;7.482;2024-03-06T01:24:29;101025.50;;;6.78;76.77
4981;BME280;2507;50.392;7.482;2024-03-06T01:26:54;101032.09;;;6.68;76.55
4981;BME280;2507;50.392;7.482;2024-03-06T01:29:20;101032.69;;;6.56;77.22
4981;BME280;2507;50.392;7.482;2024-03-06T01:31:45;101040.41;;;6.58;77.65
4981;BME280;2507;50.392;7.482;2024-03-06T01:34:11;101036.09;;;6.57;77.35
4981;BME280;2507;50.392;7.482;2024-03-06T01:36:37;101028.69;;;6.66;77.70
4981;BME280;2507;50.392;7.482;2024-03-06T01:39:02;101030.09;;;6.73;77.86
4981;BME280;2507;50.392;7.482;2024-03-06T01:41:28;101030.63;;;6.63;76.66
4981;BME280;2507;50.392;7.482;2024-03-06T01:43:53;101042.06;;;6.42;77.45
4981;BME280;2507;50.392;7.482;2024-03-06T01:46:18;101035.72;;;6.47;77.22
4981;BME280;2507;50.392;7.482;2024-03-06T01:48:44;101035.84;;;6.44;77.09
4981;BME280;2507;50.392;7.482;2024-03-06T01:51:09;101033.25;;;6.44;76.91
4981;BME280;2507;50.392;7.482;2024-03-06T01:53:35;101029.78;;;6.44;76.37
4981;BME280;2507;50.392;7.482;2024-03-06T01:56:03;101026.84;;;6.33;77.27
4981;BME280;2507;50.392;7.482;2024-03-06T01:58:29;101024.72;;;6.22;77.64
4981;BME280;2507;50.392;7.482;2024-03-06T02:00:56;101021.16;;;6.25;78.67
4981;BME280;2507;50.392;7.482;2024-03-06T02:03:22;101024.25;;;6.33;78.06
4981;BME280;2507;50.392;7.482;2024-03-06T02:05:50;101025.84;;;6.35;77.86
4981;BME280;2507;50.392;7.482;2024-03-06T02:08:15;101014.66;;;6.33;78.10
4981;BME280;2507;50.392;7.482;2024-03-06T02:10:41;101026.47;;;6.40;78.29
4981;BME280;2507;50.392;7.482;2024-03-06T02:13:06;101021.31;;;6.57;77.57
4981;BME280;2507;50.392;7.482;2024-03-06T02:15:31;101024.81;;;6.75;76.38
4981;BME280;2507;50.392;7.482;2024-03-06T02:17:57;101028.47;;;6.35;76.54
4981;BME280;2507;50.392;7.482;2024-03-06T02:20:25;101029.53;;;6.12;77.37
4981;BME280;2507;50.392;7.482;2024-03-06T02:22:51;101027.81;;;6.11;78.03
4981;BME280;2507;50.392;7.482;2024-03-06T02:25:17;101028.09;;;6.24;77.85
4981;BME280;2507;50.392;7.482;2024-03-06T02:27:43;101034.16;;;6.25;76.90
4981;BME280;2507;50.392;7.482;2024-03-06T02:30:08;101026.78;;;6.34;76.95
4981;BME280;2507;50.392;7.482;2024-03-06T02:32:34;101030.72;;;6.24;76.67
4981;BME280;2507;50.392;7.482;2024-03-06T02:35:01;101033.75;;;6.15;77.06
4981;BME280;2507;50.392;7.482;2024-03-06T02:37:28;101017.28;;;5.96;78.42
4981;BME280;2507;50.392;7.482;2024-03-06T02:39:53;101022.41;;;5.97;78.27
4981;BME280;2507;50.392;7.482;2024-03-06T02:42:18;101025.00;;;5.97;78.35
4981;BME280;2507;50.392;7.482;2024-03-06T02:44:43;101021.34;;;6.01;78.74
4981;BME280;2507;50.392;7.482;2024-03-06T02:47:09;101024.41;;;5.91;78.55
4981;BME280;2507;50.392;7.482;2024-03-06T02:49:34;101029.94;;;5.85;79.43
4981;BME280;2507;50.392;7.482;2024-03-06T02:51:59;101032.22;;;5.91;78.85
4981;BME280;2507;50.392;7.482;2024-03-06T02:54:26;101035.63;;;5.93;79.32
4981;BME280;2507;50.392;7.482;2024-03-06T02:56:51;101037.97;;;5.99;79.12
4981;BME280;2507;50.392;7.482;2024-03-06T02:59:17;101035.72;;;6.10;78.77
4981;BME280;2507;50.392;7.482;2024-03-06T03:01:42;101040.50;;;6.19;78.24
4981;BME280;2507;50.392;7.482;2024-03-06T03:04:10;101039.88;;;6.14;77.78
4981;BME280;2507;50.392;7.482;2024-03-06T03:06:36;101041.13;;;6.05;78.72
4981;BME280;2507;50.392;7.482;2024-03-06T03:09:01;101052.53;;;6.03;78.52
4981;BME280;2507;50.392;7.482;2024-03-06T03:11:29;101049.09;;;6.02;78.20
4981;BME280;2507;50.392;7.482;2024-03-06T03:13:54;101061.75;;;6.10;79.40
4981;BME280;2507;50.392;7.482;2024-03-06T03:16:19;101061.91;;;6.26;79.40
4981;BME280;2507;50.392;7.482;2024-03-06T03:18:45;101070.03;;;6.38;80.02
4981;BME280;2507;50.392;7.482;2024-03-06T03:21:11;101062.50;;;6.51;79.48
4981;BME280;2507;50.392;7.482;2024-03-06T03:23:37;101065.28;;;6.28;78.75
4981;BME280;2507;50.392;7.482;2024-03-06T03:26:02;101063.75;;;6.24;79.30
4981;BME280;2507;50.392;7.482;2024-03-06T03:28:29;101068.75;;;6.28;79.61
4981;BME280;2507;50.392;7.482;2024-03-06T03:30:54;101066.00;;;6.31;78.49
4981;BME280;2507;50.392;7.482;2024-03-06T03:33:20;101064.31;;;6.30;77.94
4981;BME280;2507;50.392;7.482;2024-03-06T03:35:45;101065.78;;;6.17;77.63
4981;BME280;2507;50.392;7.482;2024-03-06T03:38:10;101080.72;;;6.32;78.65
4981;BME280;2507;50.392;7.482;2024-03-06T03:40:35;101091.63;;;6.59;78.56
4981;BME280;2507;50.392;7.482;2024-03-06T03:43:01;101090.06;;;6.73;78.33
4981;BME280;2507;50.392;7.482;2024-03-06T03:45:31;101091.97;;;6.88;78.05
4981;BME280;2507;50.392;7.482;2024-03-06T03:47:56;101093.84;;;7.03;77.08
4981;BME280;2507;50.392;7.482;2024-03-06T03:50:21;101093.69;;;7.06;76.81
4981;BME280;2507;50.392;7.482;2024-03-06T03:52:47;101093.59;;;7.08;76.46
4981;BME280;2507;50.392;7.482;2024-03-06T03:55:12;101094.53;;;7.07;77.08
4981;BME280;2507;50.392;7.482;2024-03-06T03:57:37;101089.84;;;7.13;76.39
4981;BME280;2507;50.392;7.482;2024-03-06T04:00:03;101089.69;;;7.16;76.19
4981;BME280;2507;50.392;7.482;2024-03-06T04:02:28;101093.16;;;7.17;75.81
4981;BME280;2507;50.392;7.482;2024-03-06T04:04:53;101093.22;;;7.15;75.55
4981;BME280;2507;50.392;7.482;2024-03-06T04:07:19;101096.63;;;7.17;77.01
4981;BME280;2507;50.392;7.482;2024-03-06T04:09:44;101096.47;;;7.20;76.26
4981;BME280;2507;50.392;7.482;2024-03-06T04:12:09;101098.66;;;7.11;75.74
4981;BME280;2507;50.392;7.482;2024-03-06T04:14:35;101097.63;;;6.96;75.85
4981;BME280;2507;50.392;7.482;2024-03-06T04:17:00;101101.06;;;7.15;76.45
4981;BME280;2507;50.392;7.482;2024-03-06T04:19:27;101105.31;;;7.18;75.68
4981;BME280;2507;50.392;7.482;2024-03-06T04:21:53;101098.94;;;6.88;76.06
4981;BME280;2507;50.392;7.482;2024-03-06T04:24:18;101106.34;;;6.78;77.47
4981;BME280;2507;50.392;7.482;2024-03-06T04:26:43;101108.16;;;6.95;77.42
4981;BME280;2507;50.392;7.482;2024-03-06T04:29:08;101111.91;;;6.89;77.71
4981;BME280;2507;50.392;7.482;2024-03-06T04:31:35;101113.44;;;6.93;78.76
4981;BME280;2507;50.392;7.482;2024-03-06T04:34:01;101117.16;;;7.06;77.83
4981;BME280;2507;50.392;7.482;2024-03-06T04:36:26;101112.44;;;7.14;77.04
4981;BME280;2507;50.392;7.482;2024-03-06T04:38:51;101119.03;;;7.21;75.74
4981;BME280;2507;50.392;7.482;2024-03-06T04:41:18;101121.25;;;7.29;76.57
4981;BME280;2507;50.392;7.482;2024-03-06T04:43:44;101127.78;;;7.20;76.20
4981;BME280;2507;50.392;7.482;2024-03-06T04:46:13;101126.78;;;7.23;76.91
4981;BME280;2507;50.392;7.482;2024-03-06T04:48:39;101130.63;;;7.33;76.56
4981;BME280;2507;50.392;7.482;2024-03-06T04:51:04;101126.09;;;7.37;76.78
4981;BME280;2507;50.392;7.482;2024-03-06T04:53:29;101133.31;;;7.32;76.64
4981;BME280;2507;50.392;7.482;2024-03-06T04:55:55;101137.00;;;7.28;77.12
4981;BME280;2507;50.392;7.482;2024-03-06T04:58:20;101130.34;;;7.39;77.05
4981;BME280;2507;50.392;7.482;2024-03-06T05:00:45;101145.13;;;7.21;77.20
4981;BME280;2507;50.392;7.482;2024-03-06T05:03:11;101143.75;;;7.32;77.61
4981;BME280;2507;50.392;7.482;2024-03-06T05:05:36;101141.69;;;7.21;77.14
4981;BME280;2507;50.392;7.482;2024-03-06T05:08:01;101142.78;;;7.51;77.22
4981;BME280;2507;50.392;7.482;2024-03-06T05:10:26;101152.19;;;7.37;75.82
4981;BME280;2507;50.392;7.482;2024-03-06T05:12:52;101156.84;;;7.13;76.38
4981;BME280;2507;50.392;7.482;2024-03-06T05:15:17;101162.50;;;7.04;77.44
4981;BME280;2507;50.392;7.482;2024-03-06T05:17:44;101170.56;;;6.99;77.32
4981;BME280;2507;50.392;7.482;2024-03-06T05:20:10;101175.88;;;7.15;78.11
4981;BME280;2507;50.392;7.482;2024-03-06T05:22:35;101180.91;;;7.37;77.43
4981;BME280;2507;50.392;7.482;2024-03-06T05:25:00;101179.72;;;7.61;76.36
4981;BME280;2507;50.392;7.482;2024-03-06T05:27:26;101182.50;;;7.58;75.78
4981;BME280;2507;50.392;7.482;2024-03-06T05:29:51;101183.19;;;7.78;75.25
4981;BME280;2507;50.392;7.482;2024-03-06T05:32:17;101189.50;;;7.74;74.75
4981;BME280;2507;50.392;7.482;2024-03-06T05:34:42;101190.78;;;7.66;74.69
4981;BME280;2507;50.392;7.482;2024-03-06T05:37:08;101186.38;;;7.49;75.29
4981;BME280;2507;50.392;7.482;2024-03-06T05:39:34;101188.28;;;7.29;76.08
4981;BME280;2507;50.392;7.482;2024-03-06T05:42:01;101196.91;;;7.31;76.63
4981;BME280;2507;50.392;7.482;2024-03-06T05:44:28;101191.41;;;7.18;77.22
4981;BME280;2507;50.392;7.482;2024-03-06T05:46:53;101192.56;;;6.94;78.49
4981;BME280;2507;50.392;7.482;2024-03-06T05:49:19;101191.66;;;6.76;79.65
4981;BME280;2507;50.392;7.482;2024-03-06T05:51:44;101204.25;;;6.67;80.60
4981;BME280;2507;50.392;7.482;2024-03-06T05:54:10;101204.53;;;6.61;81.04
4981;BME280;2507;50.392;7.482;2024-03-06T05:56:35;101202.84;;;6.60;81.38
4981;BME280;2507;50.392;7.482;2024-03-06T05:59:01;101215.81;;;6.61;82.58
4981;BME280;2507;50.392;7.482;2024-03-06T06:01:32;101212.84;;;6.69;82.65
4981;BME280;2507;50.392;7.482;2024-03-06T06:03:58;101225.69;;;6.92;81.40
4981;BME280;2507;50.392;7.482;2024-03-06T06:06:23;101223.78;;;6.95;80.85
4981;BME280;2507;50.392;7.482;2024-03-06T06:08:49;101228.56;;;7.23;78.72
4981;BME280;2507;50.392;7.482;2024-03-06T06:11:14;101232.75;;;6.90;79.21
4981;BME280;2507;50.392;7.482;2024-03-06T06:13:39;101234.84;;;6.82;79.48
4981;BME280;2507;50.392;7.482;2024-03-06T06:16:05;101236.25;;;6.70;80.46
4981;BME280;2507;50.392;7.482;2024-03-06T06:18:31;101241.13;;;6.78;81.25
4981;BME280;2507;50.392;7.482;2024-03-06T06:20:57;101244.63;;;6.77;81.10
4981;BME280;2507;50.392;7.482;2024-03-06T06:23:22;101250.63;;;6.79;81.42
4981;BME280;2507;50.392;7.482;2024-03-06T06:25:48;101246.06;;;7.02;81.45
4981;BME280;2507;50.392;7.482;2024-03-06T06:28:13;101251.91;;;7.07;80.02
4981;BME280;2507;50.392;7.482;2024-03-06T06:30:38;101244.84;;;6.91;80.10
4981;BME280;2507;50.392;7.482;2024-03-06T06:33:04;101256.78;;;6.78;81.33
4981;BME280;2507;50.392;7.482;2024-03-06T06:35:30;101264.47;;;6.61;82.19
4981;BME280;2507;50.392;7.482;2024-03-06T06:37:55;101270.63;;;6.60;82.54
4981;BME280;2507;50.392;7.482;2024-03-06T06:40:20;101263.59;;;6.62;82.65
4981;BME280;2507;50.392;7.482;2024-03-06T06:42:48;101271.41;;;6.80;82.72
4981;BME280;2507;50.392;7.482;2024-03-06T06:45:15;101270.81;;;6.94;82.14
4981;BME280;2507;50.392;7.482;2024-03-06T06:47:41;101269.75;;;7.16;82.03
4981;BME280;2507;50.392;7.482;2024-03-06T06:50:06;101274.34;;;7.49;80.81
4981;BME280;2507;50.392;7.482;2024-03-06T06:52:34;101281.81;;;7.56;79.00
4981;BME280;2507;50.392;7.482;2024-03-06T06:54:59;101288.53;;;7.79;78.00
4981;BME280;2507;50.392;7.482;2024-03-06T06:57:25;101290.63;;;7.89;77.35
4981;BME280;2507;50.392;7.482;2024-03-06T06:59:50;101295.03;;;8.06;75.49
4981;BME280;2507;50.392;7.482;2024-03-06T07:02:15;101292.22;;;8.27;74.36
4981;BME280;2507;50.392;7.482;2024-03-06T07:04:40;101292.38;;;8.24;72.38
4981;BME280;2507;50.392;7.482;2024-03-06T07:07:06;101293.16;;;7.91;73.22
4981;BME280;2507;50.392;7.482;2024-03-06T07:09:31;101294.13;;;7.71;73.79
4981;BME280;2507;50.392;7.482;2024-03-06T07:11:56;101292.31;;;7.55;74.49
4981;BME280;2507;50.392;7.482;2024-03-06T07:14:21;101301.94;;;7.17;75.00
4981;BME280;2507;50.392;7.482;2024-03-06T07:16:47;101302.69;;;7.00;76.84
4981;BME280;2507;50.392;7.482;2024-03-06T07:19:12;101307.94;;;6.80;77.61
4981;BME280;2507;50.392;7.482;2024-03-06T07:21:38;101305.00;;;6.88;77.48
4981;BME280;2507;50.392;7.482;2024-03-06T07:24:04;101302.66;;;6.82;77.13
4981;BME280;2507;50.392;7.482;2024-03-06T07:26:31;101311.09;;;6.68;76.89
4981;BME280;2507;50.392;7.482;2024-03-06T07:28:57;101319.38;;;6.58;76.62
4981;BME280;2507;50.392;7.482;2024-03-06T07:31:23;101321.91;;;6.59;77.16
4981;BME280;2507;50.392;7.482;2024-03-06T07:33:48;101324.44;;;6.61;76.67
4981;BME280;2507;50.392;7.482;2024-03-06T07:36:14;101328.81;;;6.80;76.60
4981;BME280;2507;50.392;7.482;2024-03-06T07:38:39;101332.84;;;6.67;75.83
4981;BME280;2507;50.392;7.482;2024-03-06T07:41:04;101341.06;;;6.78;76.14
4981;BME280;2507;50.392;7.482;2024-03-06T07:43:29;101331.56;;;6.77;75.40
4981;BME280;2507;50.392;7.482;2024-03-06T07:45:55;101334.94;;;6.79;75.38
4981;BME280;2507;50.392;7.482;2024-03-06T07:48:20;101334.22;;;6.76;75.53
4981;BME280;2507;50.392;7.482;2024-03-06T07:50:46;101336.91;;;6.74;76.75
4981;BME280;2507;50.392;7.482;2024-03-06T07:53:11;101340.91;;;7.01;75.67
4981;BME280;2507;50.392;7.482;2024-03-06T07:55:36;101338.75;;;7.30;75.21
4981;BME280;2507;50.392;7.482;2024-03-06T07:58:04;101335.66;;;7.59;73.73
4981;BME280;2507;50.392;7.482;2024-03-06T08:00:29;101339.66;;;7.66;73.76
4981;BME280;2507;50.392;7.482;2024-03-06T08:02:56;101344.72;;;7.87;73.13
4981;BME280;2507;50.392;7.482;2024-03-06T08:05:21;101348.69;;;7.96;72.86
4981;BME280;2507;50.392;7.482;2024-03-06T08:07:47;101353.66;;;7.83;72.65
4981;BME280;2507;50.392;7.482;2024-03-06T08:10:13;101350.34;;;7.61;74.27
4981;BME280;2507;50.392;7.482;2024-03-06T08:12:43;101356.69;;;7.56;74.69
4981;BME280;2507;50.392;7.482;2024-03-06T08:15:13;101362.38;;;7.82;72.96
4981;BME280;2507;50.392;7.482;2024-03-06T08:17:40;101362.28;;;8.02;72.50
4981;BME280;2507;50.392;7.482;2024-03-06T08:20:07;101369.13;;;8.05;71.53
4981;BME280;2507;50.392;7.482;2024-03-06T08:22:34;101363.50;;;7.77;73.03
4981;BME280;2507;50.392;7.482;2024-03-06T08:25:06;101363.84;;;7.88;74.02
4981;BME280;2507;50.392;7.482;2024-03-06T08:27:33;101375.19;;;8.24;71.60
4981;BME280;2507;50.392;7.482;2024-03-06T08:29:59;101373.59;;;7.84;72.19
4981;BME280;2507;50.392;7.482;2024-03-06T08:32:24;101374.34;;;7.51;74.18
4981;BME280;2507;50.392;7.482;2024-03-06T08:34:49;101377.38;;;7.42;75.58
4981;BME280;2507;50.392;7.482;2024-03-06T08:37:15;101380.94;;;7.20;76.29
4981;BME280;2507;50.392;7.482;2024-03-06T08:39:40;101379.13;;;7.02;77.53
4981;BME280;2507;50.392;7.482;2024-03-06T08:42:05;101387.88;;;7.01;77.82
4981;BME280;2507;50.392;7.482;2024-03-06T08:44:31;101389.53;;;7.22;78.66
4981;BME280;2507;50.392;7.482;2024-03-06T08:46:56;101389.91;;;7.34;77.12
4981;BME280;2507;50.392;7.482;2024-03-06T08:49:21;101398.06;;;7.26;77.55
4981;BME280;2507;50.392;7.482;2024-03-06T08:51:46;101388.56;;;7.25;78.30
4981;BME280;2507;50.392;7.482;2024-03-06T08:54:12;101390.47;;;7.40;78.30
4981;BME280;2507;50.392;7.482;2024-03-06T08:56:37;101395.91;;;7.91;77.08
4981;BME280;2507;50.392;7.482;2024-03-06T08:59:02;101391.75;;;7.87;74.57
4981;BME280;2507;50.392;7.482;2024-03-06T09:01:27;101396.78;;;7.92;74.93
4981;BME280;2507;50.392;7.482;2024-03-06T09:03:53;101399.53;;;8.43;73.30
4981;BME280;2507;50.392;7.482;2024-03-06T09:06:18;101403.53;;;8.50;72.40
4981;BME280;2507;50.392;7.482;2024-03-06T09:08:43;101396.28;;;8.55;70.30
4981;BME280;2507;50.392;7.482;2024-03-06T09:11:09;101411.25;;;8.70;70.31
4981;BME280;2507;50.392;7.482;2024-03-06T09:13:34;101407.81;;;9.02;68.25
4981;BME280;2507;50.392;7.482;2024-03-06T09:15:59;101409.53;;;8.86;69.44
4981;BME280;2507;50.392;7.482;2024-03-06T09:18:24;101410.09;;;9.25;67.90
4981;BME280;2507;50.392;7.482;2024-03-06T09:20:50;101415.91;;;9.48;67.00
4981;BME280;2507;50.392;7.482;2024-03-06T09:23:15;101418.56;;;9.63;66.42
4981;BME280;2507;50.392;7.482;2024-03-06T09:25:41;101420.69;;;9.07;67.64
4981;BME280;2507;50.392;7.482;2024-03-06T09:28:06;101420.00;;;8.52;69.62
4981;BME280;2507;50.392;7.482;2024-03-06T09:30:33;101422.88;;;8.29;71.13
4981;BME280;2507;50.392;7.482;2024-03-06T09:32:59;101421.88;;;8.32;70.88
4981;BME280;2507;50.392;7.482;2024-03-06T09:35:24;101424.34;;;8.35;71.28
4981;BME280;2507;50.392;7.482;2024-03-06T09:37:49;101429.97;;;8.44;71.35
4981;BME280;2507;50.392;7.482;2024-03-06T09:40:22;101430.88;;;8.62;70.41
4981;BME280;2507;50.392;7.482;2024-03-06T09:42:49;101429.88;;;8.81;70.04
4981;BME280;2507;50.392;7.482;2024-03-06T09:45:15;101427.84;;;8.86;69.46
4981;BME280;2507;50.392;7.482;2024-03-06T09:47:40;101429.53;;;8.87;70.12
4981;BME280;2507;50.392;7.482;2024-03-06T09:50:08;101438.06;;;9.08;69.32
4981;BME280;2507;50.392;7.482;2024-03-06T09:52:34;101436.66;;;8.85;69.09
4981;BME280;2507;50.392;7.482;2024-03-06T09:55:01;101438.25;;;8.88;69.83
4981;BME280;2507;50.392;7.482;2024-03-06T09:57:27;101435.41;;;8.75;69.41
4981;BME280;2507;50.392;7.482;2024-03-06T09:59:53;101439.00;;;8.90;69.91
4981;BME280;2507;50.392;7.482;2024-03-06T10:02:35;101440.47;;;9.12;69.14
4981;BME280;2507;50.392;7.482;2024-03-06T10:05:03;101430.31;;;9.72;67.40
4981;BME280;2507;50.392;7.482;2024-03-06T10:07:28;101432.03;;;10.35;66.28
4981;BME280;2507;50.392;7.482;2024-03-06T10:09:53;101434.69;;;10.65;63.56
4981;BME280;2507;50.392;7.482;2024-03-06T10:12:20;101434.72;;;10.49;63.03
4981;BME280;2507;50.392;7.482;2024-03-06T10:14:50;101437.97;;;10.23;63.61
4981;BME280;2507;50.392;7.482;2024-03-06T10:17:19;101434.13;;;9.97;64.15
4981;BME280;2507;50.392;7.482;2024-03-06T10:19:48;101442.84;;;9.98;64.54
4981;BME280;2507;50.392;7.482;2024-03-06T10:22:17;101436.22;;;9.75;65.77
4981;BME280;2507;50.392;7.482;2024-03-06T10:24:42;101438.56;;;10.28;65.80
4981;BME280;2507;50.392;7.482;2024-03-06T10:27:07;101436.94;;;11.00;63.97
4981;BME280;2507;50.392;7.482;2024-03-06T10:29:33;101439.97;;;11.08;60.91
4981;BME280;2507;50.392;7.482;2024-03-06T10:32:00;101449.03;;;10.89;62.27
4981;BME280;2507;50.392;7.482;2024-03-06T10:34:27;101437.41;;;10.63;61.96
4981;BME280;2507;50.392;7.482;2024-03-06T10:36:57;101457.00;;;10.26;62.88
4981;BME280;2507;50.392;7.482;2024-03-06T10:39:23;101449.94;;;9.80;63.77
4981;BME280;2507;50.392;7.482;2024-03-06T10:41:56;101446.06;;;10.03;64.54
4981;BME280;2507;50.392;7.482;2024-03-06T10:44:26;101451.72;;;10.58;63.26
4981;BME280;2507;50.392;7.482;2024-03-06T10:47:02;101445.84;;;10.68;62.29
4981;BME280;2507;50.392;7.482;2024-03-06T10:49:29;101444.34;;;10.94;61.94
4981;BME280;2507;50.392;7.482;2024-03-06T10:52:02;101453.41;;;11.46;60.02
4981;BME280;2507;50.392;7.482;2024-03-06T10:54:31;101451.50;;;12.18;57.81
4981;BME280;2507;50.392;7.482;2024-03-06T10:56:57;101449.09;;;12.69;56.15
4981;BME280;2507;50.392;7.482;2024-03-06T10:59:25;101454.56;;;12.78;54.65
4981;BME280;2507;50.392;7.482;2024-03-06T11:01:53;101448.50;;;12.90;55.11
4981;BME280;2507;50.392;7.482;2024-03-06T11:04:19;101454.13;;;12.72;55.19
4981;BME280;2507;50.392;7.482;2024-03-06T11:06:45;101447.63;;;11.83;56.86
4981;BME280;2507;50.392;7.482;2024-03-06T11:09:11;101444.31;;;11.38;58.87
4981;BME280;2507;50.392;7.482;2024-03-06T11:11:50;101447.41;;;10.86;60.25
4981;BME280;2507;50.392;7.482;2024-03-06T11:14:17;101452.69;;;11.00;60.49
4981;BME280;2507;50.392;7.482;2024-03-06T11:17:02;101450.78;;;11.18;59.52
4981;BME280;2507;50.392;7.482;2024-03-06T11:19:29;101441.28;;;11.01;60.97
4981;BME280;2507;50.392;7.482;2024-03-06T11:21:55;101441.50;;;10.83;61.80
4981;BME280;2507;50.392;7.482;2024-03-06T11:24:22;101443.56;;;10.62;62.46
4981;BME280;2507;50.392;7.482;2024-03-06T11:27:00;101439.72;;;10.83;63.12
4981;BME280;2507;50.392;7.482;2024-03-06T11:29:32;101441.63;;;11.09;61.65
4981;BME280;2507;50.392;7.482;2024-03-06T11:32:16;101437.66;;;11.88;59.70
4981;BME280;2507;50.392;7.482;2024-03-06T11:34:42;101436.66;;;12.17;57.77
4981;BME280;2507;50.392;7.482;2024-03-06T11:37:07;101439.66;;;12.52;56.41
4981;BME280;2507;50.392;7.482;2024-03-06T11:39:36;101435.88;;;12.56;56.65
4981;BME280;2507;50.392;7.482;2024-03-06T11:42:03;101442.75;;;12.71;56.13
4981;BME280;2507;50.392;7.482;2024-03-06T11:44:31;101438.28;;;12.98;55.84
4981;BME280;2507;50.392;7.482;2024-03-06T11:47:05;101429.88;;;13.06;55.20
4981;BME280;2507;50.392;7.482;2024-03-06T11:49:32;101426.09;;;13.10;55.78
4981;BME280;2507;50.392;7.482;2024-03-06T11:52:04;101423.91;;;13.29;55.04
4981;BME280;2507;50.392;7.482;2024-03-06T11:54:36;101427.69;;;13.25;55.28
4981;BME280;2507;50.392;7.482;2024-03-06T11:57:03;101416.53;;;13.21;55.75
4981;BME280;2507;50.392;7.482;2024-03-06T11:59:30;101416.81;;;13.17;56.62
4981;BME280;2507;50.392;7.482;2024-03-06T12:02:00;101412.91;;;13.48;55.37
4981;BME280;2507;50.392;7.482;2024-03-06T12:04:34;101406.06;;;13.07;55.95
4981;BME280;2507;50.392;7.482;2024-03-06T12:07:01;101413.81;;;12.84;57.82
4981;BME280;2507;50.392;7.482;2024-03-06T12:09:31;101406.00;;;12.70;57.61
4981;BME280;2507;50.392;7.482;2024-03-06T12:11:56;101408.38;;;12.60;57.60
4981;BME280;2507;50.392;7.482;2024-03-06T12:14:22;101405.81;;;12.85;57.44
4981;BME280;2507;50.392;7.482;2024-03-06T12:16:55;101398.75;;;12.86;57.04
4981;BME280;2507;50.392;7.482;2024-03-06T12:19:21;101406.75;;;12.97;57.42
4981;BME280;2507;50.392;7.482;2024-03-06T12:21:47;101400.59;;;13.23;56.83
4981;BME280;2507;50.392;7.482;2024-03-06T12:24:16;101402.91;;;13.27;56.32
4981;BME280;2507;50.392;7.482;2024-03-06T12:26:43;101387.81;;;13.29;56.15
4981;BME280;2507;50.392;7.482;2024-03-06T12:29:10;101390.25;;;13.20;55.10
4981;BME280;2507;50.392;7.482;2024-03-06T12:31:37;101382.34;;;13.45;55.04
4981;BME280;2507;50.392;7.482;2024-03-06T12:34:04;101388.22;;;13.61;54.52
4981;BME280;2507;50.392;7.482;2024-03-06T12:36:30;101382.28;;;13.70;55.24
4981;BME280;2507;50.392;7.482;2024-03-06T12:38:59;101387.44;;;13.72;55.20
4981;BME280;2507;50.392;7.482;2024-03-06T12:41:26;101385.41;;;13.88;55.32
4981;BME280;2507;50.392;7.482;2024-03-06T12:43:52;101390.22;;;13.70;55.60
4981;BME280;2507;50.392;7.482;2024-03-06T12:46:18;101389.78;;;13.76;55.48
4981;BME280;2507;50.392;7.482;2024-03-06T12:48:44;101391.13;;;14.18;54.89
4981;BME280;2507;50.392;7.482;2024-03-06T12:51:09;101380.94;;;14.48;54.01
4981;BME280;2507;50.392;7.482;2024-03-06T12:53:35;101376.81;;;14.68;53.45
4981;BME280;2507;50.392;7.482;2024-03-06T12:56:01;101377.97;;;14.98;52.33
4981;BME280;2507;50.392;7.482;2024-03-06T12:58:26;101377.97;;;14.98;52.57
4981;BME280;2507;50.392;7.482;2024-03-06T13:00:51;101382.75;;;14.82;53.11
4981;BME280;2507;50.392;7.482;2024-03-06T13:03:17;101383.72;;;14.47;52.52
4981;BME280;2507;50.392;7.482;2024-03-06T13:05:43;101377.78;;;14.32;51.95
4981;BME280;2507;50.392;7.482;2024-03-06T13:08:08;101378.19;;;14.26;50.39
4981;BME280;2507;50.392;7.482;2024-03-06T13:10:33;101369.34;;;14.27;50.94
4981;BME280;2507;50.392;7.482;2024-03-06T13:13:00;101372.94;;;14.61;50.25
4981;BME280;2507;50.392;7.482;2024-03-06T13:15:25;101372.69;;;14.98;49.72